createdAt,value
2023-05-15T00:02:02.468Z,10.63
2023-05-15T00:06:04.933Z,8.05
2023-05-15T00:10:07.580Z,11.52
2023-05-15T00:14:09.285Z,9.15
2023-05-15T00:18:11.043Z,11.30
2023-05-15T00:22:12.759Z,9.10
2023-05-15T00:26:15.695Z,9.25
2023-05-15T00:30:17.414Z,8.60
2023-05-15T00:34:19.385Z,12.23
2023-05-15T00:38:21.021Z,11.23
2023-05-15T00:42:24.364Z,8.93
2023-05-15T00:46:27.813Z,9.65
2023-05-15T00:50:30.328Z,8.75
2023-05-15T00:54:32.437Z,10.27
2023-05-15T00:58:34.485Z,12.73
2023-05-15T01:02:39.051Z,11.70
2023-05-15T01:06:40.841Z,9.10
2023-05-15T01:10:43.964Z,12.37
2023-05-15T01:14:45.685Z,11.45
2023-05-15T01:18:47.422Z,9.73
2023-05-15T01:23:20.527Z,10.82
2023-05-15T01:27:49.750Z,12.55
2023-05-15T01:31:57.324Z,10.77
2023-05-15T01:36:01.203Z,11.15
2023-05-15T01:40:05.357Z,11.60
2023-05-15T01:44:26.140Z,14.82
2023-05-15T01:48:29.807Z,10.55
2023-05-15T01:52:36.636Z,14.23
2023-05-15T01:56:40.494Z,15.38
2023-05-15T02:00:42.811Z,12.48
2023-05-15T02:04:45.404Z,11.30
2023-05-15T02:08:48.000Z,11.27
2023-05-15T02:12:50.261Z,10.65
2023-05-15T02:16:52.570Z,16.12
2023-05-15T02:20:54.349Z,28.42
2023-05-15T02:24:56.002Z,32.53
2023-05-15T02:29:17.944Z,30.17
2023-05-15T02:34:01.213Z,37.08
2023-05-15T02:38:09.402Z,36.00
2023-05-15T02:42:14.190Z,38.67
2023-05-15T02:46:16.425Z,39.28
2023-05-15T02:50:18.690Z,36.08
2023-05-15T02:54:21.419Z,40.63
2023-05-15T02:58:23.102Z,42.53
2023-05-15T03:02:24.751Z,38.88
2023-05-15T03:06:26.473Z,32.85
2023-05-15T03:10:28.187Z,34.30
2023-05-15T03:14:29.846Z,33.45
2023-05-15T03:18:31.553Z,29.35
2023-05-15T03:22:33.266Z,32.67
2023-05-15T03:26:34.904Z,33.40
2023-05-15T03:30:36.544Z,32.13
2023-05-15T03:34:39.778Z,34.50
2023-05-15T03:38:44.186Z,32.97
2023-05-15T03:42:45.909Z,42.78
2023-05-15T03:46:47.609Z,36.92
2023-05-15T03:50:49.298Z,37.45
2023-05-15T03:54:51.054Z,42.10
2023-05-15T03:58:53.402Z,34.65
2023-05-15T04:02:55.501Z,41.05
2023-05-15T04:06:57.165Z,34.25
2023-05-15T04:10:58.837Z,41.25
2023-05-15T04:15:22.043Z,44.20
2023-05-15T04:19:23.924Z,60.85
2023-05-15T04:23:25.906Z,69.03
2023-05-15T04:27:27.748Z,72.00
2023-05-15T04:31:29.780Z,73.62
2023-05-15T04:35:31.716Z,74.03
2023-05-15T04:39:33.298Z,89.37
2023-05-15T04:43:34.983Z,89.65
2023-05-15T04:47:37.021Z,91.78
2023-05-15T04:51:38.798Z,92.12
2023-05-15T04:55:40.507Z,111.18
2023-05-15T04:59:42.154Z,116.55
2023-05-15T05:03:43.880Z,114.40
2023-05-15T05:07:46.242Z,112.75
2023-05-15T05:11:48.278Z,111.12
2023-05-15T05:15:50.008Z,109.68
2023-05-15T05:19:51.723Z,109.45
2023-05-15T05:23:53.373Z,105.10
2023-05-15T05:27:55.026Z,110.93
2023-05-15T05:31:57.549Z,112.88
2023-05-15T05:35:59.299Z,95.32
2023-05-15T05:40:00.918Z,76.18
2023-05-15T05:44:02.646Z,76.30
2023-05-15T05:48:04.500Z,88.90
2023-05-15T05:52:08.326Z,88.65
2023-05-15T05:56:10.286Z,97.18
2023-05-15T06:00:12.712Z,103.87
2023-05-15T06:04:17.549Z,127.40
2023-05-15T06:08:20.578Z,126.40
2023-05-15T06:12:23.186Z,115.70
2023-05-15T06:16:25.048Z,114.82
2023-05-15T06:20:27.212Z,103.80
2023-05-15T06:24:29.256Z,102.70
2023-05-15T06:28:30.956Z,94.00
2023-05-15T06:32:34.621Z,79.40
2023-05-15T06:36:37.279Z,66.95
2023-05-15T06:40:38.986Z,70.28
2023-05-15T06:44:40.709Z,78.18
2023-05-15T06:48:42.415Z,99.40
2023-05-15T06:52:44.155Z,93.05
2023-05-15T06:56:45.929Z,92.20
2023-05-15T07:00:47.557Z,66.30
2023-05-15T07:04:49.318Z,57.85
2023-05-15T07:08:51.081Z,38.55
2023-05-15T07:12:52.786Z,37.88
2023-05-15T07:16:54.634Z,36.90
2023-05-15T07:20:56.304Z,37.85
2023-05-15T07:24:57.973Z,40.50
2023-05-15T07:28:59.605Z,42.97
2023-05-15T07:33:01.665Z,38.65
2023-05-15T07:37:03.373Z,40.60
2023-05-15T07:41:05.666Z,33.50
2023-05-15T07:45:07.897Z,35.40
2023-05-15T07:49:09.629Z,36.08
2023-05-15T07:53:11.265Z,36.72
2023-05-15T07:57:12.969Z,43.60
2023-05-15T08:01:14.684Z,45.47
2023-05-15T08:05:16.537Z,38.00
2023-05-15T08:09:18.222Z,38.42
2023-05-15T08:13:19.889Z,36.33
2023-05-15T08:17:22.243Z,30.73
2023-05-15T08:21:24.019Z,29.73
2023-05-15T08:25:25.841Z,31.87
2023-05-15T08:29:27.631Z,27.50
2023-05-15T08:33:29.294Z,27.10
2023-05-15T08:37:31.072Z,33.25
2023-05-15T08:41:40.860Z,30.67
2023-05-15T08:45:43.479Z,26.83
2023-05-15T08:50:04.852Z,22.50
2023-05-15T08:54:07.024Z,29.25
2023-05-15T08:58:09.243Z,22.08
2023-05-15T09:02:11.084Z,22.73
2023-05-15T09:06:14.020Z,24.35
2023-05-15T09:10:16.257Z,26.17
2023-05-15T09:14:18.594Z,23.48
2023-05-15T09:18:20.859Z,24.25
2023-05-15T09:22:24.119Z,26.70
2023-05-15T09:26:25.802Z,21.80
2023-05-15T09:30:30.957Z,20.75
2023-05-15T09:34:35.185Z,23.40
2023-05-15T09:38:47.366Z,24.87
2023-05-15T09:42:52.689Z,17.98
2023-05-15T09:46:54.440Z,24.25
2023-05-15T09:50:56.772Z,18.95
2023-05-15T09:54:58.462Z,20.62
2023-05-15T09:59:00.238Z,18.50
2023-05-15T10:03:03.966Z,21.08
2023-05-15T10:07:09.094Z,17.35
2023-05-15T10:11:11.062Z,14.82
2023-05-15T10:15:14.699Z,13.75
2023-05-15T10:19:18.086Z,17.77
2023-05-15T10:23:22.180Z,16.58
2023-05-15T10:27:24.493Z,16.65
2023-05-15T10:31:27.152Z,19.20
2023-05-15T10:35:29.139Z,18.27
2023-05-15T10:39:31.176Z,10.40
2023-05-15T10:43:35.141Z,17.75
2023-05-15T10:47:39.620Z,15.55
2023-05-15T10:51:42.391Z,14.02
2023-05-15T10:55:46.033Z,20.37
2023-05-15T10:59:47.754Z,19.67
2023-05-15T11:03:50.943Z,28.77
2023-05-15T11:08:15.558Z,153.80
2023-05-15T11:12:17.354Z,190.95
2023-05-15T11:16:54.425Z,15.60
2023-05-15T11:20:58.936Z,15.27
2023-05-15T11:25:11.987Z,18.08
2023-05-15T11:29:19.768Z,18.17
2023-05-15T11:33:21.551Z,14.90
2023-05-15T11:37:24.576Z,17.98
2023-05-15T11:41:31.761Z,15.18
2023-05-15T11:45:36.698Z,15.70
2023-05-15T11:49:39.050Z,11.45
2023-05-15T11:53:41.154Z,11.88
2023-05-15T11:57:42.916Z,15.10
2023-05-15T12:01:48.394Z,16.05
2023-05-15T12:05:58.875Z,14.38
2023-05-15T12:10:01.890Z,12.13
2023-05-15T12:14:03.798Z,15.07
2023-05-15T12:18:07.672Z,11.68
2023-05-15T12:22:09.478Z,13.52
2023-05-15T12:26:11.414Z,12.73
2023-05-15T12:30:14.560Z,13.95
2023-05-15T12:34:16.357Z,12.50
2023-05-15T12:38:18.526Z,13.55
2023-05-15T12:42:20.348Z,14.48
2023-05-15T12:46:31.666Z,11.50
2023-05-15T12:50:34.889Z,10.60
2023-05-15T12:54:43.613Z,6.47
2023-05-15T12:58:45.604Z,9.77
2023-05-15T13:02:50.945Z,9.45
2023-05-15T13:06:53.010Z,16.48
2023-05-15T13:10:59.730Z,9.50
2023-05-15T13:15:01.462Z,13.85
2023-05-15T13:19:03.344Z,15.05
2023-05-15T13:23:05.543Z,11.50
2023-05-15T13:27:07.304Z,11.43
2023-05-15T13:31:09.310Z,9.23
2023-05-15T13:35:11.379Z,8.35
2023-05-15T13:39:13.317Z,10.45
2023-05-15T13:43:15.266Z,13.32
2023-05-15T13:47:17.095Z,17.85
2023-05-15T13:51:18.851Z,17.60
2023-05-15T13:55:22.956Z,20.95
2023-05-15T13:59:25.282Z,21.42
2023-05-15T14:03:27.649Z,21.20
2023-05-15T14:07:29.414Z,19.85
2023-05-15T14:11:31.098Z,19.23
2023-05-15T14:15:32.822Z,20.33
2023-05-15T14:19:34.478Z,16.95
2023-05-15T14:23:36.304Z,17.62
2023-05-15T14:27:38.256Z,16.10
2023-05-15T14:31:42.320Z,16.90
2023-05-15T14:35:44.031Z,13.30
2023-05-15T14:39:45.756Z,13.43
2023-05-15T14:43:47.463Z,14.75
2023-05-15T14:47:49.449Z,13.20
2023-05-15T14:51:51.082Z,15.70
2023-05-15T14:55:54.627Z,14.23
2023-05-15T14:59:56.397Z,12.80
2023-05-15T15:03:58.174Z,14.27
2023-05-15T15:08:03.500Z,13.10
2023-05-15T15:12:06.076Z,14.15
2023-05-15T15:16:08.184Z,16.98
2023-05-15T15:20:11.930Z,14.87
2023-05-15T15:24:13.744Z,17.65
2023-05-15T15:28:15.461Z,13.07
2023-05-15T15:32:17.126Z,18.05
2023-05-15T15:36:18.979Z,22.50
2023-05-15T15:40:20.775Z,22.83
2023-05-15T15:44:24.471Z,25.52
2023-05-15T15:48:26.202Z,27.40
2023-05-15T15:52:28.089Z,28.70
2023-05-15T15:56:29.804Z,33.08
2023-05-15T16:00:31.602Z,25.15
2023-05-15T16:04:34.050Z,26.85
2023-05-15T16:08:36.202Z,30.25
2023-05-15T16:12:40.497Z,25.50
2023-05-15T16:16:42.346Z,27.27
2023-05-15T16:20:44.249Z,26.55
2023-05-15T16:24:47.796Z,28.08
2023-05-15T16:28:50.677Z,29.65
2023-05-15T16:32:52.444Z,24.08
2023-05-15T16:36:54.171Z,22.15
2023-05-15T16:40:55.904Z,25.02
2023-05-15T16:44:57.654Z,21.73
2023-05-15T16:48:59.484Z,21.55
2023-05-15T16:53:01.418Z,20.90
2023-05-15T16:57:03.208Z,23.20
2023-05-15T17:01:05.227Z,22.70
2023-05-15T17:05:10.716Z,24.95
2023-05-15T17:09:12.368Z,24.30
2023-05-15T17:13:14.478Z,26.05
2023-05-15T17:17:16.274Z,25.50
2023-05-15T17:21:18.129Z,25.90
2023-05-15T17:25:19.861Z,27.80
2023-05-15T17:29:21.567Z,34.25
2023-05-15T17:33:23.304Z,29.77
2023-05-15T17:37:25.040Z,31.62
2023-05-15T17:41:26.705Z,29.90
2023-05-15T17:45:28.509Z,27.98
2023-05-15T17:49:30.332Z,26.27
2023-05-15T17:53:32.204Z,22.55
2023-05-15T17:57:33.947Z,19.73
2023-05-15T18:01:35.716Z,16.48
2023-05-15T18:05:37.383Z,16.08
2023-05-15T18:09:39.320Z,18.23
2023-05-15T18:13:41.101Z,17.67
2023-05-15T18:17:43.039Z,16.37
2023-05-15T18:21:44.794Z,18.65
2023-05-15T18:25:46.915Z,20.37
2023-05-15T18:29:49.394Z,22.17
2023-05-15T18:33:51.166Z,22.10
2023-05-15T18:37:52.897Z,21.02
2023-05-15T18:41:55.059Z,22.98
2023-05-15T18:45:56.748Z,20.50
2023-05-15T18:49:58.481Z,19.75
2023-05-15T18:54:00.206Z,25.25
2023-05-15T18:58:01.952Z,26.33
2023-05-15T19:02:03.628Z,21.37
2023-05-15T19:06:06.077Z,22.23
2023-05-15T19:10:08.767Z,21.92
2023-05-15T19:14:15.199Z,19.85
2023-05-15T19:18:17.131Z,17.67
2023-05-15T19:22:19.172Z,15.70
2023-05-15T19:26:21.655Z,17.65
2023-05-15T19:30:23.368Z,21.27
2023-05-15T19:34:25.306Z,16.80
2023-05-15T19:38:27.021Z,14.10
2023-05-15T19:42:28.677Z,19.08
2023-05-15T19:46:30.720Z,18.25
2023-05-15T19:50:33.302Z,15.18
2023-05-15T19:54:35.162Z,21.42
2023-05-15T19:58:36.950Z,15.13
2023-05-15T20:02:41.056Z,20.73
2023-05-15T20:06:42.859Z,19.25
2023-05-15T20:10:49.990Z,17.67
2023-05-15T20:14:52.119Z,16.90
2023-05-15T20:18:55.346Z,16.85
2023-05-15T20:22:57.133Z,15.95
2023-05-15T20:26:58.830Z,12.60
2023-05-15T20:31:01.591Z,13.70
2023-05-15T20:35:03.574Z,16.42
2023-05-15T20:39:07.445Z,10.70
2023-05-15T20:43:09.352Z,11.45
2023-05-15T20:47:10.985Z,10.05
2023-05-15T20:51:12.611Z,14.82
2023-05-15T20:55:16.070Z,13.13
2023-05-15T20:59:17.790Z,12.40
2023-05-15T21:03:19.956Z,12.77
2023-05-15T21:07:21.999Z,10.90
2023-05-15T21:11:23.751Z,13.90
2023-05-15T21:15:25.578Z,12.65
2023-05-15T21:19:27.284Z,12.68
2023-05-15T21:23:29.101Z,12.45
2023-05-15T21:27:30.829Z,15.32
2023-05-15T21:31:32.562Z,15.55
2023-05-15T21:35:34.517Z,14.70
2023-05-15T21:39:36.272Z,14.27
2023-05-15T21:43:38.102Z,16.62
2023-05-15T21:47:40.135Z,14.07
2023-05-15T21:51:42.264Z,19.60
2023-05-15T21:55:44.530Z,16.83
2023-05-15T21:59:46.226Z,17.33
2023-05-15T22:03:48.096Z,15.38
2023-05-15T22:07:50.406Z,15.88
2023-05-15T22:11:52.108Z,12.73
2023-05-15T22:15:53.852Z,15.95
2023-05-15T22:20:02.522Z,14.52
2023-05-15T22:24:04.430Z,17.70
2023-05-15T22:28:06.216Z,12.35
2023-05-15T22:32:08.186Z,13.27
2023-05-15T22:36:10.091Z,15.10
2023-05-15T22:40:12.403Z,14.18
2023-05-15T22:44:14.441Z,13.20
2023-05-15T22:48:16.376Z,13.05
2023-05-15T22:52:18.593Z,13.85
2023-05-15T22:56:20.290Z,13.50
2023-05-15T23:00:22.049Z,11.40
2023-05-15T23:04:23.976Z,16.52
2023-05-15T23:08:26.514Z,21.58
2023-05-15T23:12:28.757Z,18.92
2023-05-15T23:16:31.200Z,17.85
2023-05-15T23:20:32.995Z,19.83
2023-05-15T23:24:34.697Z,17.75
2023-05-15T23:28:36.515Z,15.75
2023-05-15T23:32:38.253Z,15.40
2023-05-15T23:36:40.206Z,19.05
2023-05-15T23:40:41.855Z,14.70
2023-05-15T23:44:44.074Z,12.52
2023-05-15T23:48:45.800Z,15.93
2023-05-15T23:52:47.755Z,12.13
2023-05-15T23:56:49.584Z,11.50
